createdAt,value
2023-01-09T00:00:43.553Z,15.80
2023-01-09T00:03:25.163Z,16.80
2023-01-09T00:05:54.487Z,15.70
2023-01-09T00:08:29.651Z,15.50
2023-01-09T00:11:01.756Z,16.10
2023-01-09T00:13:30.592Z,14.30
2023-01-09T00:15:59.718Z,15.50
2023-01-09T00:18:35.047Z,16.70
2023-01-09T00:21:06.343Z,19.10
2023-01-09T00:23:35.915Z,17.80
2023-01-09T00:26:08.461Z,16.40
2023-01-09T00:28:40.679Z,18.70
2023-01-09T00:31:11.055Z,16.70
2023-01-09T00:33:45.548Z,16.80
2023-01-09T00:36:14.603Z,16.70
2023-01-09T00:38:43.664Z,15.40
2023-01-09T00:41:17.585Z,16.40
2023-01-09T00:43:51.803Z,16.00
2023-01-09T00:46:25.277Z,15.40
2023-01-09T00:48:54.298Z,16.10
2023-01-09T00:51:23.838Z,15.00
2023-01-09T00:53:56.303Z,14.10
2023-01-09T00:56:25.324Z,15.30
2023-01-09T00:59:00.437Z,15.40
2023-01-09T01:01:29.757Z,17.10
2023-01-09T01:04:22.395Z,16.90
2023-01-09T01:07:10.321Z,17.80
2023-01-09T01:09:39.892Z,18.50
2023-01-09T01:12:08.910Z,21.30
2023-01-09T01:14:39.216Z,18.20
2023-01-09T01:17:09.064Z,17.90
2023-01-09T01:19:38.354Z,18.70
2023-01-09T01:22:07.237Z,18.60
2023-01-09T01:24:36.768Z,17.50
2023-01-09T01:27:06.346Z,16.10
2023-01-09T01:29:35.612Z,16.90
2023-01-09T01:32:05.355Z,15.90
2023-01-09T01:34:34.760Z,16.50
2023-01-09T01:37:03.820Z,17.10
2023-01-09T01:39:32.710Z,20.00
2023-01-09T01:42:03.592Z,17.10
2023-01-09T01:45:02.270Z,17.40
2023-01-09T01:47:44.911Z,20.70
2023-01-09T01:50:22.215Z,18.10
2023-01-09T01:52:57.318Z,20.50
2023-01-09T01:55:26.702Z,17.20
2023-01-09T01:58:01.552Z,23.60
2023-01-09T02:00:36.451Z,19.20
2023-01-09T02:03:07.801Z,22.40
2023-01-09T02:05:38.947Z,25.30
2023-01-09T02:08:08.608Z,26.20
2023-01-09T02:10:39.039Z,23.80
2023-01-09T02:13:10.171Z,29.60
2023-01-09T02:15:51.450Z,21.00
2023-01-09T02:18:47.988Z,20.30
2023-01-09T02:21:30.178Z,15.80
2023-01-09T02:24:43.820Z,18.20
2023-01-09T02:27:48.138Z,16.30
2023-01-09T02:30:40.416Z,19.40
2023-01-09T02:33:33.422Z,17.90
2023-01-09T02:36:12.785Z,17.60
2023-01-09T02:38:59.706Z,16.50
2023-01-09T02:41:36.562Z,16.60
2023-01-09T02:44:18.145Z,16.10
2023-01-09T02:46:47.594Z,15.10
2023-01-09T02:49:18.030Z,15.70
2023-01-09T02:51:55.975Z,18.60
2023-01-09T02:54:45.302Z,18.20
2023-01-09T02:57:36.859Z,23.20
2023-01-09T03:00:18.806Z,19.00
2023-01-09T03:02:53.671Z,14.50
2023-01-09T03:05:31.456Z,15.70
2023-01-09T03:08:04.466Z,14.00
2023-01-09T03:10:39.749Z,13.80
2023-01-09T03:13:12.057Z,15.20
2023-01-09T03:15:44.508Z,14.90
2023-01-09T03:18:16.102Z,16.20
2023-01-09T03:20:46.502Z,13.80
2023-01-09T03:23:15.617Z,15.60
2023-01-09T03:25:44.501Z,15.30
2023-01-09T03:28:28.708Z,16.30
2023-01-09T03:30:58.767Z,14.70
2023-01-09T03:33:28.326Z,15.10
2023-01-09T03:36:00.800Z,15.40
2023-01-09T03:38:29.899Z,16.00
2023-01-09T03:40:59.253Z,15.60
2023-01-09T03:43:31.515Z,15.40
2023-01-09T03:46:04.216Z,15.10
2023-01-09T03:48:33.117Z,16.90
2023-01-09T03:51:02.337Z,17.10
2023-01-09T03:53:31.798Z,16.80
2023-01-09T03:56:00.837Z,16.60
2023-01-09T03:58:29.885Z,15.70
2023-01-09T04:01:01.782Z,14.50
2023-01-09T04:03:31.498Z,15.80
2023-01-09T04:06:00.774Z,15.20
2023-01-09T04:08:33.108Z,15.70
2023-01-09T04:11:05.396Z,17.00
2023-01-09T04:13:37.893Z,16.10
2023-01-09T04:16:08.033Z,16.80
2023-01-09T04:21:05.366Z,15.70
2023-01-09T04:23:34.316Z,16.20
2023-01-09T04:26:03.447Z,15.80
2023-01-09T04:28:35.817Z,17.10
2023-01-09T04:31:05.319Z,17.40
2023-01-09T04:33:37.123Z,15.60
2023-01-09T04:36:07.529Z,15.40
2023-01-09T04:38:36.551Z,14.90
2023-01-09T04:41:05.967Z,16.60
2023-01-09T04:43:35.340Z,14.60
2023-01-09T04:46:04.408Z,14.30
2023-01-09T04:48:33.397Z,16.80
2023-01-09T04:51:02.588Z,16.90
2023-01-09T04:53:31.844Z,14.90
2023-01-09T04:56:04.463Z,14.90
2023-01-09T04:58:33.948Z,14.80
2023-01-09T05:01:03.185Z,14.50
2023-01-09T05:03:32.385Z,13.50
2023-01-09T05:06:04.418Z,12.30
2023-01-09T05:08:37.026Z,12.90
2023-01-09T05:11:06.720Z,15.80
2023-01-09T05:13:35.649Z,19.20
2023-01-09T05:16:04.680Z,20.80
2023-01-09T05:18:37.030Z,18.90
2023-01-09T05:21:06.383Z,19.90
2023-01-09T05:23:35.196Z,19.40
2023-01-09T05:26:05.324Z,16.00
2023-01-09T05:28:34.534Z,16.50
2023-01-09T05:31:03.918Z,16.40
2023-01-09T05:33:33.587Z,17.10
2023-01-09T05:36:02.699Z,18.90
2023-01-09T05:38:31.744Z,18.40
2023-01-09T05:41:01.663Z,18.30
2023-01-09T05:43:30.710Z,16.30
2023-01-09T05:46:02.729Z,18.40
2023-01-09T05:48:32.528Z,18.50
2023-01-09T05:51:01.819Z,19.10
2023-01-09T05:53:30.652Z,21.10
2023-01-09T05:56:06.046Z,22.70
2023-01-09T05:58:41.709Z,21.40
2023-01-09T06:01:11.252Z,23.30
2023-01-09T06:03:40.397Z,33.90
2023-01-09T06:06:09.508Z,26.60
2023-01-09T06:08:38.675Z,23.40
2023-01-09T06:11:08.832Z,21.70
2023-01-09T06:16:08.190Z,23.70
2023-01-09T06:18:38.221Z,20.10
2023-01-09T06:26:04.484Z,22.20
2023-01-09T06:28:33.839Z,21.70
2023-01-09T06:31:07.143Z,20.50
2023-01-09T06:33:39.629Z,25.90
2023-01-09T06:36:09.750Z,26.70
2023-01-09T06:38:38.917Z,27.10
2023-01-09T06:41:08.308Z,27.50
2023-01-09T06:43:37.704Z,29.30
2023-01-09T06:46:06.848Z,26.30
2023-01-09T06:48:40.710Z,24.70
2023-01-09T06:51:10.728Z,25.40
2023-01-09T06:53:43.511Z,26.10
2023-01-09T06:56:13.052Z,25.40
2023-01-09T06:58:43.373Z,28.50
2023-01-09T07:01:13.218Z,25.70
2023-01-09T07:03:43.154Z,25.60
2023-01-09T07:06:12.587Z,23.80
2023-01-09T07:08:42.105Z,24.70
2023-01-09T07:11:14.397Z,24.70
2023-01-09T07:13:44.336Z,27.30
2023-01-09T07:16:14.078Z,26.80
2023-01-09T07:18:47.090Z,26.90
2023-01-09T07:21:43.921Z,26.90
2023-01-09T07:24:17.538Z,29.00
2023-01-09T07:26:52.250Z,26.40
2023-01-09T07:29:34.255Z,37.60
2023-01-09T07:32:03.654Z,31.50
2023-01-09T07:34:36.850Z,29.90
2023-01-09T07:37:08.778Z,33.10
2023-01-09T07:39:38.387Z,32.10
2023-01-09T07:42:32.737Z,28.10
2023-01-09T07:45:10.715Z,26.50
2023-01-09T07:47:43.683Z,27.80
2023-01-09T07:50:13.939Z,25.70
2023-01-09T07:52:46.135Z,28.50
2023-01-09T07:55:18.033Z,28.00
2023-01-09T07:57:53.403Z,28.80
2023-01-09T08:00:24.180Z,20.60
2023-01-09T08:03:03.270Z,18.80
2023-01-09T08:05:36.104Z,16.20
2023-01-09T08:08:17.997Z,14.10
2023-01-09T08:10:52.353Z,13.70
2023-01-09T08:13:22.461Z,13.40
2023-01-09T08:15:53.905Z,12.10
2023-01-09T08:18:29.726Z,12.90
2023-01-09T08:21:02.294Z,12.20
2023-01-09T08:23:32.138Z,14.00
2023-01-09T08:26:07.336Z,14.20
2023-01-09T08:28:40.316Z,16.40
2023-01-09T08:31:11.574Z,19.60
2023-01-09T08:34:00.348Z,22.70
2023-01-09T08:36:30.481Z,21.90
2023-01-09T08:39:00.124Z,25.60
2023-01-09T08:41:59.543Z,23.50
2023-01-09T08:44:53.324Z,27.00
2023-01-09T08:47:25.310Z,23.10
2023-01-09T08:49:56.250Z,23.80
2023-01-09T08:52:26.592Z,24.40
2023-01-09T08:55:03.119Z,20.20
2023-01-09T08:57:32.966Z,26.30
2023-01-09T09:02:30.668Z,20.90
2023-01-09T09:05:10.689Z,20.60
2023-01-09T09:07:44.043Z,21.00
2023-01-09T09:10:16.499Z,17.60
2023-01-09T09:12:49.985Z,17.20
2023-01-09T09:15:24.651Z,17.50
2023-01-09T09:17:56.076Z,17.40
2023-01-09T09:20:32.752Z,14.70
2023-01-09T09:23:11.729Z,13.20
2023-01-09T09:25:45.250Z,17.90
2023-01-09T09:28:14.640Z,16.80
2023-01-09T09:30:44.612Z,18.80
2023-01-09T09:33:15.297Z,18.40
2023-01-09T09:35:44.898Z,15.70
2023-01-09T09:38:17.078Z,15.40
2023-01-09T09:41:05.526Z,13.00
2023-01-09T09:44:17.758Z,12.40
2023-01-09T09:47:01.054Z,16.60
2023-01-09T09:49:42.231Z,16.90
2023-01-09T09:52:20.560Z,16.30
2023-01-09T09:54:51.113Z,18.50
2023-01-09T09:57:29.663Z,14.30
2023-01-09T10:00:07.202Z,12.70
2023-01-09T10:02:49.841Z,13.00
2023-01-09T10:05:31.587Z,14.00
2023-01-09T10:08:15.345Z,13.20
2023-01-09T10:10:51.996Z,13.60
2023-01-09T10:13:44.070Z,12.80
2023-01-09T10:16:31.171Z,11.40
2023-01-09T10:19:12.069Z,11.80
2023-01-09T10:22:02.440Z,20.10
2023-01-09T10:24:46.695Z,20.90
2023-01-09T10:27:31.649Z,3.30
2023-01-09T10:30:17.568Z,2.00
2023-01-09T10:33:04.242Z,2.10
2023-01-09T10:36:10.625Z,1.80
2023-01-09T10:38:43.422Z,2.80
2023-01-09T10:41:21.629Z,2.60
2023-01-09T10:44:07.109Z,2.90
2023-01-09T10:46:41.810Z,3.20
2023-01-09T10:49:16.319Z,4.00
2023-01-09T10:51:49.243Z,4.40
2023-01-09T10:54:23.353Z,5.60
2023-01-09T10:56:56.167Z,7.30
2023-01-09T10:59:35.145Z,27.40
2023-01-09T11:02:05.490Z,20.80
2023-01-09T11:04:39.575Z,38.50
2023-01-09T11:07:20.929Z,27.50
2023-01-09T11:10:04.437Z,33.40
2023-01-09T11:12:35.206Z,17.80
2023-01-09T11:15:30.706Z,6.10
2023-01-09T11:18:23.978Z,4.30
2023-01-09T11:20:54.401Z,4.40
2023-01-09T11:24:14.403Z,4.50
2023-01-09T11:26:48.554Z,2.80
2023-01-09T11:29:20.567Z,3.10
2023-01-09T11:31:53.943Z,3.00
2023-01-09T11:34:25.061Z,3.50
2023-01-09T11:37:03.597Z,3.50
2023-01-09T11:39:41.274Z,3.60
2023-01-09T11:42:43.941Z,3.70
2023-01-09T11:45:19.238Z,3.50
2023-01-09T11:47:51.808Z,3.70
2023-01-09T11:50:33.741Z,3.50
2023-01-09T11:53:17.733Z,3.10
2023-01-09T11:56:03.557Z,2.80
2023-01-09T11:58:35.817Z,3.10
2023-01-09T12:01:22.746Z,4.00
2023-01-09T12:04:18.319Z,3.90
2023-01-09T12:07:04.075Z,3.70
2023-01-09T12:09:44.699Z,3.20
2023-01-09T12:12:33.764Z,4.10
2023-01-09T12:15:18.183Z,5.60
2023-01-09T12:18:11.247Z,7.40
2023-01-09T12:20:52.750Z,3.80
2023-01-09T12:23:46.421Z,5.90
2023-01-09T12:26:21.234Z,5.10
2023-01-09T12:29:22.005Z,6.30
2023-01-09T12:34:57.669Z,2.30
2023-01-09T12:37:52.125Z,3.90
2023-01-09T12:40:38.787Z,3.40
2023-01-09T12:43:21.830Z,3.60
2023-01-09T12:46:11.155Z,4.20
2023-01-09T12:49:06.147Z,3.60
2023-01-09T12:51:42.082Z,4.10
2023-01-09T12:54:17.643Z,6.50
2023-01-09T12:56:53.507Z,6.30
2023-01-09T12:59:30.523Z,3.40
2023-01-09T13:02:16.234Z,2.70
2023-01-09T13:04:59.194Z,2.50
2023-01-09T13:07:32.518Z,2.60
2023-01-09T13:10:19.525Z,2.90
2023-01-09T13:13:02.656Z,3.10
2023-01-09T13:15:39.856Z,3.60
2023-01-09T13:18:15.982Z,4.40
2023-01-09T13:20:48.180Z,6.40
2023-01-09T13:23:24.046Z,6.10
2023-01-09T13:26:00.011Z,7.50
2023-01-09T13:31:25.781Z,9.50
2023-01-09T13:33:57.976Z,8.30
2023-01-09T13:36:30.078Z,9.10
2023-01-09T13:39:08.291Z,7.40
2023-01-09T13:42:06.574Z,6.40
2023-01-09T13:44:42.475Z,6.20
2023-01-09T13:47:22.115Z,6.80
2023-01-09T13:50:24.260Z,6.80
2023-01-09T13:52:53.624Z,6.40
2023-01-09T13:55:37.581Z,7.70
2023-01-09T13:58:27.538Z,7.90
2023-01-09T14:01:34.907Z,8.80
2023-01-09T14:04:45.405Z,6.30
2023-01-09T14:07:22.792Z,6.00
2023-01-09T14:10:06.875Z,6.80
2023-01-09T14:12:41.958Z,9.00
2023-01-09T14:15:26.806Z,7.20
2023-01-09T14:18:04.922Z,9.00
2023-01-09T14:20:38.832Z,8.40
2023-01-09T14:23:51.063Z,10.00
2023-01-09T14:26:24.267Z,10.20
2023-01-09T14:29:17.592Z,12.90
2023-01-09T14:31:51.973Z,11.10
2023-01-09T14:34:40.940Z,14.40
2023-01-09T14:37:17.595Z,12.00
2023-01-09T14:39:50.268Z,15.30
2023-01-09T14:42:23.866Z,19.50
2023-01-09T14:45:00.994Z,20.70
2023-01-09T14:47:40.127Z,23.30
2023-01-09T14:50:18.545Z,33.40
2023-01-09T14:52:51.379Z,32.90
2023-01-09T14:55:26.662Z,26.80
2023-01-09T15:00:26.397Z,7.50
2023-01-09T15:02:56.686Z,6.10
2023-01-09T15:05:35.196Z,6.00
2023-01-09T15:08:05.665Z,7.50
2023-01-09T15:10:38.046Z,7.70
2023-01-09T15:13:14.512Z,5.30
2023-01-09T15:15:46.853Z,5.70
2023-01-09T15:18:23.649Z,6.40
2023-01-09T15:21:05.818Z,9.40
2023-01-09T15:23:34.816Z,9.50
2023-01-09T15:26:24.644Z,11.10
2023-01-09T15:29:05.208Z,8.90
2023-01-09T15:31:34.440Z,10.20
2023-01-09T15:34:05.509Z,8.00
2023-01-09T15:36:41.576Z,9.80
2023-01-09T15:42:09.184Z,9.60
2023-01-09T15:44:42.209Z,9.50
2023-01-09T15:47:18.056Z,9.80
2023-01-09T15:49:51.315Z,10.60
2023-01-09T15:52:23.779Z,9.20
2023-01-09T15:54:53.008Z,10.90
2023-01-09T15:57:35.870Z,9.70
2023-01-09T16:00:41.256Z,8.50
2023-01-09T16:03:22.732Z,13.40
2023-01-09T16:06:04.795Z,16.90
2023-01-09T16:11:10.850Z,11.00
2023-01-09T16:13:46.041Z,12.90
2023-01-09T16:16:26.527Z,13.10
2023-01-09T16:18:57.343Z,14.60
2023-01-09T16:21:36.893Z,11.30
2023-01-09T16:24:36.592Z,9.10
2023-01-09T16:27:23.317Z,22.40
2023-01-09T16:29:57.674Z,31.80
2023-01-09T16:32:33.080Z,41.10
2023-01-09T16:35:20.272Z,45.00
2023-01-09T16:37:49.247Z,42.40
2023-01-09T16:40:26.626Z,37.90
2023-01-09T16:43:03.901Z,36.20
2023-01-09T16:45:35.773Z,41.30
2023-01-09T16:48:13.746Z,39.90
2023-01-09T16:50:44.165Z,31.70
2023-01-09T16:53:16.537Z,24.50
2023-01-09T16:55:49.132Z,29.20
2023-01-09T16:58:24.684Z,42.00
2023-01-09T17:00:55.991Z,38.20
2023-01-09T17:03:25.646Z,46.10
2023-01-09T17:05:57.981Z,41.30
2023-01-09T17:08:35.784Z,40.70
2023-01-09T17:11:05.918Z,41.10
2023-01-09T17:16:10.140Z,40.60
2023-01-09T17:18:39.879Z,38.90
2023-01-09T17:21:17.507Z,33.70
2023-01-09T17:23:47.841Z,36.20
2023-01-09T17:26:39.633Z,40.50
2023-01-09T17:29:12.246Z,38.70
2023-01-09T17:31:44.628Z,36.70
2023-01-09T17:34:14.055Z,40.40
2023-01-09T17:36:45.806Z,43.20
2023-01-09T17:39:16.414Z,50.60
2023-01-09T17:41:45.994Z,53.00
2023-01-09T17:44:15.636Z,48.80
2023-01-09T17:46:45.300Z,38.90
2023-01-09T17:51:45.630Z,21.50
2023-01-09T17:54:15.205Z,22.30
2023-01-09T17:56:46.683Z,21.20
2023-01-09T17:59:19.536Z,16.20
2023-01-09T18:01:49.405Z,16.00
2023-01-09T18:04:19.062Z,15.40
2023-01-09T18:06:49.492Z,22.50
2023-01-09T18:09:19.280Z,22.90
2023-01-09T18:11:48.503Z,104.90
2023-01-09T18:14:18.016Z,76.00
2023-01-09T18:16:47.345Z,88.40
2023-01-09T18:19:16.507Z,55.00
2023-01-09T18:21:48.473Z,102.10
2023-01-09T18:24:18.065Z,76.80
2023-01-09T18:26:47.888Z,55.70
2023-01-09T18:29:18.434Z,40.80
2023-01-09T18:31:48.698Z,50.00
2023-01-09T18:34:18.655Z,78.20
2023-01-09T18:36:48.204Z,78.90
2023-01-09T18:39:17.357Z,94.70
2023-01-09T18:41:46.812Z,64.10
2023-01-09T18:44:24.568Z,69.50
2023-01-09T18:46:54.417Z,42.20
2023-01-09T18:49:23.877Z,72.30
2023-01-09T18:51:52.706Z,60.80
2023-01-09T18:54:22.114Z,23.50
2023-01-09T18:56:57.147Z,15.30
2023-01-09T18:59:26.716Z,12.80
2023-01-09T19:01:56.137Z,17.50
2023-01-09T19:04:25.788Z,27.40
2023-01-09T19:06:56.584Z,23.50
2023-01-09T19:09:25.642Z,35.70
2023-01-09T19:11:54.769Z,19.90
2023-01-09T19:14:24.027Z,18.90
2023-01-09T19:17:07.738Z,16.10
2023-01-09T19:19:39.742Z,26.60
2023-01-09T19:22:10.241Z,27.30
2023-01-09T19:24:42.643Z,22.60
2023-01-09T19:27:12.047Z,13.80
2023-01-09T19:29:40.976Z,11.20
2023-01-09T19:32:13.252Z,9.50
2023-01-09T19:35:34.698Z,8.90
2023-01-09T19:38:07.094Z,9.30
2023-01-09T19:40:39.875Z,10.30
2023-01-09T19:43:57.611Z,10.10
2023-01-09T19:47:17.449Z,10.70
2023-01-09T19:54:07.607Z,13.10
2023-01-09T19:56:39.990Z,23.10
2023-01-09T19:59:10.915Z,16.30
2023-01-09T20:01:41.518Z,20.90
2023-01-09T20:04:13.717Z,9.40
2023-01-09T20:06:45.304Z,11.90
2023-01-09T20:09:16.349Z,15.20
2023-01-09T20:11:45.826Z,14.40
2023-01-09T20:14:16.973Z,16.80
2023-01-09T20:16:51.857Z,19.50
2023-01-09T20:19:21.365Z,21.10
2023-01-09T20:21:50.712Z,19.50
2023-01-09T20:24:20.632Z,19.00
2023-01-09T20:26:50.640Z,30.20
2023-01-09T20:34:20.281Z,39.00
2023-01-09T20:36:49.768Z,33.00
2023-01-09T20:39:18.849Z,26.50
2023-01-09T20:41:48.825Z,27.50
2023-01-09T20:44:18.437Z,23.10
2023-01-09T20:46:48.297Z,24.80
2023-01-09T20:49:18.572Z,26.80
2023-01-09T20:51:50.204Z,24.00
2023-01-09T20:54:24.589Z,19.70
2023-01-09T20:56:54.444Z,22.60
2023-01-09T20:59:24.455Z,19.20
2023-01-09T21:06:51.706Z,16.00
2023-01-09T21:09:21.007Z,17.40
2023-01-09T21:11:53.011Z,15.10
2023-01-09T21:14:22.624Z,15.10
2023-01-09T21:16:55.008Z,14.00
2023-01-09T21:19:24.774Z,15.50
2023-01-09T21:21:54.424Z,14.70
2023-01-09T21:24:23.631Z,13.40
2023-01-09T21:26:52.983Z,14.30
2023-01-09T21:29:21.679Z,16.00
2023-01-09T21:31:50.653Z,14.20
2023-01-09T21:34:20.328Z,14.00
2023-01-09T21:36:53.544Z,16.20
2023-01-09T21:39:23.103Z,16.70
2023-01-09T21:42:10.857Z,17.20
2023-01-09T21:44:59.156Z,15.50
2023-01-09T21:47:38.761Z,19.50
2023-01-09T21:50:10.382Z,19.40
2023-01-09T21:52:42.460Z,52.50
2023-01-09T21:55:11.533Z,17.60
2023-01-09T21:57:40.310Z,14.80
2023-01-09T22:00:12.100Z,17.90
2023-01-09T22:02:41.811Z,33.40
2023-01-09T22:05:11.879Z,20.10
2023-01-09T22:07:41.104Z,23.50
2023-01-09T22:10:15.287Z,23.40
2023-01-09T22:13:11.431Z,28.30
2023-01-09T22:15:41.268Z,49.70
2023-01-09T22:20:38.545Z,14.80
2023-01-09T22:23:07.829Z,21.90
2023-01-09T22:25:41.734Z,37.00
2023-01-09T22:28:11.347Z,29.60
2023-01-09T22:30:41.925Z,55.60
2023-01-09T22:33:11.587Z,48.70
2023-01-09T22:35:41.946Z,45.80
2023-01-09T22:38:12.588Z,63.50
2023-01-09T22:40:42.093Z,52.60
2023-01-09T22:43:15.647Z,39.40
2023-01-09T22:45:45.369Z,42.30
2023-01-09T22:48:15.012Z,38.80
2023-01-09T22:50:44.168Z,50.20
2023-01-09T22:53:13.456Z,55.80
2023-01-09T22:55:42.765Z,63.40
2023-01-09T22:58:12.073Z,45.90
2023-01-09T23:00:41.458Z,39.70
2023-01-09T23:03:13.945Z,56.50
2023-01-09T23:05:43.394Z,25.10
2023-01-09T23:08:13.644Z,25.00
2023-01-09T23:10:47.235Z,26.60
2023-01-09T23:13:17.085Z,21.00
2023-01-09T23:15:49.200Z,20.80
2023-01-09T23:18:18.768Z,26.40
2023-01-09T23:20:53.497Z,20.30
2023-01-09T23:23:24.169Z,18.00
2023-01-09T23:25:56.701Z,17.80
2023-01-09T23:28:41.018Z,16.80
2023-01-09T23:31:09.961Z,17.30
2023-01-09T23:33:39.522Z,17.00
2023-01-09T23:36:10.013Z,18.40
2023-01-09T23:38:39.505Z,14.70
2023-01-09T23:41:08.755Z,15.40
2023-01-09T23:43:37.756Z,16.20
2023-01-09T23:46:07.319Z,16.40
2023-01-09T23:48:36.449Z,15.90
2023-01-09T23:51:06.053Z,16.60
2023-01-09T23:53:35.932Z,19.00
2023-01-09T23:56:05.585Z,15.50
2023-01-09T23:58:35.959Z,15.90
